Time;durP1;ratioP1;P1;durP2;ratioP2;P2;SDS_P1;SDS_P2;PMS_P1;PMS_P2;Temp;Humidity;BMP_temperature;BMP_pressure;BME280_temperature;BME280_humidity;BME280_pressure;Samples;Min_cycle;Max_cycle;Signal;HPM_P1;HPM_P2
2023/08/15 00:01:30;;;;;;;9.85;4.50;;;;;;;18.53;100.00;101191.19;4917170;29;20036;-79
2023/08/15 00:03:56;;;;;;;9.70;4.53;;;;;;;18.65;100.00;101198.91;4919248;29;20028;-79
2023/08/15 00:06:21;;;;;;;7.72;4.60;;;;;;;18.48;100.00;101177.69;4919027;29;20031;-79
2023/08/15 00:08:54;;;;;;;9.93;4.90;;;;;;;18.52;100.00;101186.91;4918873;29;20537;-79
2023/08/15 00:11:20;;;;;;;9.20;4.70;;;;;;;18.38;100.00;101171.63;4918792;29;20040;-79
2023/08/15 00:13:46;;;;;;;11.90;4.72;;;;;;;18.29;100.00;101143.75;4902090;29;20107;-79
2023/08/15 00:16:11;;;;;;;8.73;4.90;;;;;;;18.51;100.00;101180.03;4919052;29;20172;-79
2023/08/15 00:18:37;;;;;;;9.07;4.28;;;;;;;18.26;100.00;101149.22;4918934;29;20035;-80
2023/08/15 00:21:02;;;;;;;10.10;4.72;;;;;;;18.48;100.00;101177.69;4917835;29;20098;-79
2023/08/15 00:23:27;;;;;;;10.48;5.13;;;;;;;18.41;100.00;101175.78;4918715;29;20024;-79
2023/08/15 00:25:53;;;;;;;8.90;4.72;;;;;;;18.34;100.00;101170.28;4918517;29;20040;-80
2023/08/15 00:28:18;;;;;;;8.00;4.15;;;;;;;18.21;100.00;101156.66;4918486;29;20447;-79
2023/08/15 00:30:43;;;;;;;7.30;4.90;;;;;;;18.05;100.00;101152.81;4918631;29;20050;-79
2023/08/15 00:33:08;;;;;;;9.88;4.50;;;;;;;18.00;100.00;101151.56;4918783;29;20028;-79
2023/08/15 00:35:34;;;;;;;14.50;4.70;;;;;;;18.07;100.00;101176.19;4918498;29;20051;-79
2023/08/15 00:37:59;;;;;;;9.15;4.43;;;;;;;17.94;100.00;101179.06;4918581;29;20028;-79
2023/08/15 00:40:24;;;;;;;8.98;4.90;;;;;;;18.00;100.00;101202.06;4918430;29;20124;-79
2023/08/15 00:42:50;;;;;;;10.10;4.72;;;;;;;18.00;100.00;101202.06;4918346;29;20047;-79
2023/08/15 00:45:16;;;;;;;9.57;4.93;;;;;;;17.95;100.00;101188.56;4918427;29;20024;-79
2023/08/15 00:47:41;;;;;;;10.30;4.63;;;;;;;18.00;100.00;101201.22;4918443;29;20442;-79
2023/08/15 00:50:08;;;;;;;9.75;4.10;;;;;;;18.04;100.00;101203.44;4918237;29;20504;-79
2023/08/15 00:52:34;;;;;;;8.23;4.03;;;;;;;18.09;100.00;101200.38;4918449;29;20056;-79
2023/08/15 00:54:59;;;;;;;11.85;4.20;;;;;;;18.10;100.00;101212.53;4918074;29;20513;-79
2023/08/15 00:57:25;;;;;;;9.95;3.58;;;;;;;18.04;100.00;101207.81;4917484;29;20060;-79
2023/08/15 00:59:50;;;;;;;9.63;3.65;;;;;;;18.02;100.00;101215.81;4918079;29;20024;-79
2023/08/15 01:02:16;;;;;;;9.30;3.60;;;;;;;17.80;100.00;101196.91;4918356;29;20435;-78
2023/08/15 01:04:42;;;;;;;8.88;3.67;;;;;;;17.84;100.00;101206.97;4918210;29;20039;-79
2023/08/15 01:07:09;;;;;;;10.15;3.40;;;;;;;17.84;100.00;101216.59;4917886;29;20108;-79
2023/08/15 01:09:34;;;;;;;9.25;3.40;;;;;;;17.84;100.00;101217.41;4917709;29;20032;-79
2023/08/15 01:12:18;;;;;;;8.32;3.47;;;;;;;17.74;100.00;101201.72;4918051;29;20039;-80
2023/08/15 01:14:50;;;;;;;7.43;3.05;;;;;;;17.83;98.17;101204.50;4918068;29;20036;-79
2023/08/15 01:17:24;;;;;;;7.75;3.17;;;;;;;17.82;98.46;101200.22;4917843;29;20036;-79
2023/08/15 01:19:52;;;;;;;7.82;2.95;;;;;;;17.78;98.11;101200.47;4917907;29;20032;-79
2023/08/15 01:22:23;;;;;;;8.65;3.25;;;;;;;17.68;99.54;101175.25;4917707;29;20462;-79
2023/08/15 01:24:49;;;;;;;7.28;3.17;;;;;;;17.73;99.29;101187.00;4917498;29;20032;-79
2023/08/15 01:27:15;;;;;;;9.75;3.50;;;;;;;17.69;99.65;101185.59;4917544;29;20070;-79
2023/08/15 01:29:40;;;;;;;9.10;3.60;;;;;;;17.70;98.73;101186.47;4915664;29;20044;-79
2023/08/15 01:32:36;;;;;;;10.75;3.42;;;;;;;17.84;98.76;101196.50;4917522;29;20165;-79
2023/08/15 01:35:07;;;;;;;8.98;4.00;;;;;;;17.81;98.41;101199.41;4917536;29;20393;-79
2023/08/15 01:37:36;;;;;;;10.33;3.50;;;;;;;17.75;98.33;101185.09;4917634;29;20039;-78
2023/08/15 01:40:04;;;;;;;11.32;3.58;;;;;;;17.86;97.91;101218.09;4917479;29;20119;-78
2023/08/15 01:42:31;;;;;;;9.48;4.18;;;;;;;17.90;97.66;101216.88;4917748;29;20156;-79
2023/08/15 01:45:00;;;;;;;9.18;3.95;;;;;;;17.90;99.38;101226.50;4917541;29;20074;-78
2023/08/15 01:47:25;;;;;;;10.77;4.05;;;;;;;17.84;99.49;101222.66;4917575;29;20047;-79
2023/08/15 01:49:51;;;;;;;10.98;4.28;;;;;;;17.85;100.00;101219.06;4917177;29;20036;-79
2023/08/15 01:52:16;;;;;;;10.32;4.13;;;;;;;17.87;100.00;101238.03;4917062;29;20035;-79
2023/08/15 01:54:41;;;;;;;10.02;4.10;;;;;;;17.85;100.00;101241.75;4946604;23;20044;-79
2023/08/15 01:57:07;;;;;;;10.13;3.92;;;;;;;17.81;100.00;101235.97;4917257;29;20040;-79
2023/08/15 01:59:32;;;;;;;10.00;4.25;;;;;;;17.85;100.00;101246.97;4917226;29;20107;-78
2023/08/15 02:01:57;;;;;;;8.63;3.97;;;;;;;17.86;100.00;101249.44;4917129;29;20028;-79
2023/08/15 02:04:23;;;;;;;9.20;3.50;;;;;;;17.85;100.00;101254.81;4916967;29;20446;-79
2023/08/15 02:06:48;;;;;;;12.25;4.10;;;;;;;17.88;100.00;101252.75;4916910;29;20028;-78
2023/08/15 02:09:13;;;;;;;9.52;3.90;;;;;;;17.87;100.00;101256.31;4916689;29;20032;-78
2023/08/15 02:11:39;;;;;;;9.98;4.05;;;;;;;17.81;100.00;101258.66;4916987;29;20040;-79
2023/08/15 02:14:04;;;;;;;11.27;4.63;;;;;;;17.65;100.00;101244.28;4916965;29;20032;-77
2023/08/15 02:16:29;;;;;;;8.35;3.92;;;;;;;17.74;100.00;101269.63;4916756;29;20028;-79
2023/08/15 02:18:55;;;;;;;11.32;4.57;;;;;;;17.72;100.00;101274.16;4916717;29;20036;-79
2023/08/15 02:21:20;;;;;;;9.02;4.45;;;;;;;17.57;100.00;101259.78;4916787;29;20055;-79
2023/08/15 02:23:45;;;;;;;9.75;4.43;;;;;;;17.64;100.00;101281.81;4916668;29;20028;-78
2023/08/15 02:26:11;;;;;;;10.68;4.60;;;;;;;17.63;100.00;101287.97;4916376;29;20020;-79
2023/08/15 02:28:36;;;;;;;11.02;4.50;;;;;;;17.62;100.00;101295.97;4916658;29;20032;-79
2023/08/15 02:31:04;;;;;;;10.13;4.10;;;;;;;17.55;100.00;101298.25;4916708;29;20079;-79
2023/08/15 02:33:30;;;;;;;7.60;4.10;;;;;;;17.54;100.00;101293.16;4915736;29;20404;-79
2023/08/15 02:35:55;;;;;;;10.60;4.95;;;;;;;17.52;100.00;101289.84;4916673;29;20043;-78
2023/08/15 02:38:20;;;;;;;11.20;4.28;;;;;;;17.46;100.00;101285.97;4916421;29;20115;-78
2023/08/15 02:40:46;;;;;;;8.75;4.07;;;;;;;17.43;100.00;101283.63;4916447;29;20081;-79
2023/08/15 02:43:11;;;;;;;13.95;4.35;;;;;;;17.45;100.00;101295.59;4916608;29;20036;-78
2023/08/15 02:45:36;;;;;;;10.73;3.92;;;;;;;17.43;100.00;101286.25;4916374;29;20024;-79
2023/08/15 02:48:02;;;;;;;11.52;4.13;;;;;;;17.29;100.00;101268.28;4898706;29;20123;-79
2023/08/15 02:50:27;;;;;;;9.63;3.92;;;;;;;17.32;100.00;101279.31;4916358;29;20024;-79
2023/08/15 02:52:53;;;;;;;9.23;4.15;;;;;;;17.28;100.00;101279.69;4916380;29;20024;-79
2023/08/15 02:55:18;;;;;;;10.88;4.07;;;;;;;17.22;100.00;101270.59;4915860;29;20080;-78
2023/08/15 02:57:43;;;;;;;10.40;4.13;;;;;;;17.23;100.00;101284.47;4916195;29;20111;-78
2023/08/15 03:00:09;;;;;;;12.75;4.50;;;;;;;17.19;100.00;101281.28;4916244;29;20103;-78
2023/08/15 03:02:35;;;;;;;9.82;3.88;;;;;;;17.06;100.00;101265.81;4916397;29;20080;-79
2023/08/15 03:05:00;;;;;;;9.07;4.40;;;;;;;17.08;100.00;101263.09;4916226;29;20039;-79
2023/08/15 03:07:25;;;;;;;9.40;4.03;;;;;;;17.10;100.00;101279.44;4916235;29;20038;-79
2023/08/15 03:09:51;;;;;;;9.50;4.18;;;;;;;17.08;100.00;101276.13;4915913;29;20479;-79
2023/08/15 03:12:16;;;;;;;13.50;4.78;;;;;;;17.06;100.00;101291.09;4923093;29;20043;-79
2023/08/15 03:14:42;;;;;;;8.80;4.03;;;;;;;16.81;100.00;101250.53;4934953;29;20032;-79
2023/08/15 03:17:08;;;;;;;11.30;4.28;;;;;;;16.87;100.00;101257.88;4935356;29;20024;-78
2023/08/15 03:19:33;;;;;;;10.02;4.53;;;;;;;16.94;100.00;101279.06;4935200;29;20081;-79
2023/08/15 03:21:58;;;;;;;11.75;4.47;;;;;;;16.90;100.00;101274.09;4937744;29;20035;-79
2023/08/15 03:24:27;;;;;;;10.18;4.22;;;;;;;16.86;100.00;101280.53;4938805;29;20050;-78
2023/08/15 03:26:52;;;;;;;11.43;4.50;;;;;;;16.85;100.00;101291.91;4938518;29;20122;-79
2023/08/15 03:29:18;;;;;;;13.80;4.35;;;;;;;16.80;100.00;101282.78;4938709;29;20106;-79
2023/08/15 03:31:43;;;;;;;9.10;4.75;;;;;;;16.76;100.00;101282.22;4938779;29;20035;-80
2023/08/15 03:34:08;;;;;;;9.90;4.60;;;;;;;16.75;100.00;101288.41;4938806;29;20495;-79
2023/08/15 03:36:34;;;;;;;13.57;4.97;;;;;;;16.69;100.00;101281.06;4921577;29;20481;-79
2023/08/15 03:38:59;;;;;;;11.88;4.88;;;;;;;16.64;100.00;101286.63;4938583;29;20028;-79
2023/08/15 03:41:24;;;;;;;13.30;4.68;;;;;;;16.60;100.00;101287.81;4938106;29;20122;-79
2023/08/15 03:43:50;;;;;;;13.73;5.40;;;;;;;16.58;100.00;101281.09;4938557;29;20139;-79
2023/08/15 03:46:15;;;;;;;13.15;5.20;;;;;;;16.49;100.00;101287.88;4938576;29;20027;-79
2023/08/15 03:48:41;;;;;;;11.38;5.18;;;;;;;16.33;100.00;101279.63;4938419;29;20048;-79
2023/08/15 03:51:07;;;;;;;15.32;6.00;;;;;;;16.29;100.00;101273.81;4938556;29;20024;-79
2023/08/15 03:53:32;;;;;;;11.82;5.68;;;;;;;16.25;100.00;101271.59;4938384;29;20031;-80
2023/08/15 03:55:57;;;;;;;12.93;5.82;;;;;;;16.31;100.00;101295.38;4937953;29;20142;-79
2023/08/15 03:58:23;;;;;;;16.48;5.95;;;;;;;16.13;100.00;101276.00;4920613;29;20141;-78
2023/08/15 04:00:49;;;;;;;15.43;5.93;;;;;;;16.28;100.00;101303.44;4938417;29;20382;-78
2023/08/15 04:03:16;;;;;;;14.55;5.97;;;;;;;16.21;100.00;101297.06;4938053;29;20028;-79
2023/08/15 04:05:45;;;;;;;12.88;6.10;;;;;;;16.13;100.00;101294.25;4938244;29;20039;-79
2023/08/15 04:08:11;;;;;;;14.50;6.50;;;;;;;16.18;100.00;101293.88;4938074;29;20032;-79
2023/08/15 04:10:39;;;;;;;19.40;6.40;;;;;;;16.09;100.00;101300.63;4937938;29;20031;-79
2023/08/15 04:13:09;;;;;;;11.00;6.07;;;;;;;15.97;100.00;101272.94;4937819;29;20039;-79
2023/08/15 04:15:35;;;;;;;15.13;6.28;;;;;;;16.00;100.00;101298.75;4937924;29;20055;-79
2023/08/15 04:18:02;;;;;;;12.55;6.18;;;;;;;15.72;100.00;101254.00;4937903;29;20473;-79
2023/08/15 04:20:27;;;;;;;14.80;6.63;;;;;;;16.00;100.00;101286.56;4937886;29;20114;-79
2023/08/15 04:22:52;;;;;;;15.32;6.95;;;;;;;15.75;100.00;101248.59;4936539;29;20183;-79
2023/08/15 04:25:18;;;;;;;17.83;6.72;;;;;;;15.92;100.00;101291.53;4937543;29;20034;-79
2023/08/15 04:27:43;;;;;;;13.90;7.00;;;;;;;15.93;100.00;101302.81;4937536;29;20489;-79
2023/08/15 04:30:09;;;;;;;12.73;7.03;;;;;;;15.92;100.00;101293.31;4937754;29;20038;-79
2023/08/15 04:32:34;;;;;;;14.65;6.88;;;;;;;15.90;100.00;101297.81;4936589;29;20398;-79
2023/08/15 04:34:59;;;;;;;14.95;6.85;;;;;;;15.78;100.00;101292.59;4937504;29;20062;-79
2023/08/15 04:37:25;;;;;;;13.73;6.80;;;;;;;15.89;100.00;101306.56;4937380;29;20066;-78
2023/08/15 04:39:50;;;;;;;15.88;7.47;;;;;;;15.80;100.00;101297.69;4937513;29;20032;-78
2023/08/15 04:42:16;;;;;;;14.98;7.55;;;;;;;15.88;100.00;101316.16;4937268;29;20024;-79
2023/08/15 04:44:41;;;;;;;14.02;7.30;;;;;;;15.85;100.00;101284.34;4937261;29;20405;-79
2023/08/15 04:47:06;;;;;;;13.63;7.80;;;;;;;15.98;100.00;101316.28;4937605;29;20016;-79
2023/08/15 04:49:33;;;;;;;14.02;7.40;;;;;;;16.02;100.00;101322.91;4919778;29;20485;-78
2023/08/15 04:51:59;;;;;;;15.98;7.28;;;;;;;15.96;100.00;101318.19;4937123;29;20431;-78
2023/08/15 04:54:24;;;;;;;13.93;7.70;;;;;;;15.94;100.00;101320.91;4937070;29;20031;-79
2023/08/15 04:56:49;;;;;;;16.65;7.53;;;;;;;15.99;100.00;101325.75;4937036;29;20063;-79
2023/08/15 04:59:17;;;;;;;14.55;7.63;;;;;;;16.06;100.00;101340.78;4936934;29;20118;-80
2023/08/15 05:01:42;;;;;;;12.77;7.30;;;;;;;16.04;100.00;101334.06;4937085;29;20031;-81
2023/08/15 05:04:08;;;;;;;15.63;7.53;;;;;;;15.69;100.00;101295.91;4936930;29;20035;-79
2023/08/15 05:06:33;;;;;;;14.88;6.68;;;;;;;16.01;100.00;101355.09;4987867;23;20014;-80
2023/08/15 05:08:58;;;;;;;13.18;7.22;;;;;;;16.06;100.00;101363.41;4917901;29;20095;-81
2023/08/15 05:11:24;;;;;;;13.05;7.60;;;;;;;15.90;100.00;101348.13;4918153;29;20035;-81
2023/08/15 05:13:49;;;;;;;17.05;8.57;;;;;;;16.05;100.00;101377.38;4917685;29;20462;-81
2023/08/15 05:16:14;;;;;;;17.08;8.25;;;;;;;16.05;100.00;101377.38;4917880;29;20462;-81
2023/08/15 05:18:40;;;;;;;12.48;7.70;;;;;;;16.05;100.00;101378.22;4917614;29;20087;-80
2023/08/15 05:21:05;;;;;;;16.20;7.90;;;;;;;16.17;100.00;101383.41;4917846;29;20044;-79
2023/08/15 05:23:30;;;;;;;15.43;8.57;;;;;;;15.80;100.00;101317.69;4917911;29;20032;-80
2023/08/15 05:25:55;;;;;;;14.75;8.00;;;;;;;16.26;100.00;101386.13;4917838;29;20473;-80
2023/08/15 05:28:21;;;;;;;13.40;7.60;;;;;;;16.24;100.00;101380.22;4917430;29;20031;-80
2023/08/15 05:30:47;;;;;;;14.95;8.02;;;;;;;16.34;100.00;101388.97;4917393;29;20035;-80
2023/08/15 05:33:12;;;;;;;13.50;7.68;;;;;;;16.39;100.00;101398.22;4917591;29;20466;-80
2023/08/15 05:35:38;;;;;;;13.15;7.38;;;;;;;16.46;100.00;101404.59;4917509;29;20039;-80
2023/08/15 05:38:04;;;;;;;16.38;8.00;;;;;;;16.38;100.00;101375.69;4917543;29;20028;-80
2023/08/15 05:40:30;;;;;;;18.20;8.05;;;;;;;16.47;100.00;101378.41;4915855;29;20047;-80
2023/08/15 05:42:55;;;;;;;17.67;7.95;;;;;;;16.55;100.00;101372.59;4917295;29;20060;-81
2023/08/15 05:45:20;;;;;;;15.35;7.53;;;;;;;16.48;100.00;101343.56;4932743;29;20371;-80
2023/08/15 05:47:46;;;;;;;15.45;8.30;;;;;;;16.85;100.00;101382.38;4936328;29;20661;-81
2023/08/15 05:50:11;;;;;;;13.25;7.88;;;;;;;16.97;100.00;101373.56;4936086;29;20184;-80
2023/08/15 05:52:36;;;;;;;14.95;8.00;;;;;;;17.32;100.00;101396.78;4936366;29;20095;-80
2023/08/15 05:55:02;;;;;;;14.18;7.68;;;;;;;17.98;100.00;101405.16;4936430;29;20525;-80
2023/08/15 05:57:27;;;;;;;15.32;7.82;;;;;;;19.07;100.00;101400.94;4936105;29;20536;-80
2023/08/15 05:59:52;;;;;;;12.65;5.97;;;;;;;20.25;100.00;101396.13;4936010;29;20028;-81
2023/08/15 06:02:18;;;;;;;12.35;6.45;;;;;;;21.24;92.62;101407.53;4918489;29;20032;-78
2023/08/15 06:04:44;;;;;;;12.45;5.57;;;;;;;22.27;85.72;101409.34;4917821;29;20116;-81
2023/08/15 06:07:09;;;;;;;10.10;4.60;;;;;;;23.29;79.89;101426.66;4916536;29;20403;-80
2023/08/15 06:09:35;;;;;;;11.75;5.10;;;;;;;23.77;76.25;101427.63;4916879;29;20115;-81
2023/08/15 06:12:00;;;;;;;10.15;4.93;;;;;;;23.66;74.48;101433.28;4916773;29;20028;-83
2023/08/15 06:14:26;;;;;;;8.88;4.80;;;;;;;23.08;77.50;101429.78;4916361;29;20024;-79
2023/08/15 06:16:51;;;;;;;10.43;4.63;;;;;;;22.66;79.67;101421.97;4898743;29;20628;-79
2023/08/15 06:24:36;;;;;;;8.02;3.78;;;;;;;23.65;74.45;101284.78;4876151;27;20049;-80
2023/08/15 06:27:01;;;;;;;7.60;3.50;;;;;;;24.52;68.75;101295.22;4897464;29;20032;-81
2023/08/15 06:29:26;;;;;;;10.93;5.18;;;;;;;25.76;63.95;101386.47;4897186;29;20040;-80
2023/08/15 06:31:53;;;;;;;10.02;4.07;;;;;;;26.39;61.30;101422.94;4897276;29;20489;-79
2023/08/15 06:34:21;;;;;;;6.20;3.05;;;;;;;26.35;61.54;101449.94;4897485;29;20028;-80
2023/08/15 06:36:47;;;;;;;7.38;3.63;;;;;;;26.38;60.75;101462.88;4897403;29;20020;-80
2023/08/15 06:39:12;;;;;;;10.98;4.05;;;;;;;26.67;60.23;101464.63;4880691;29;20033;-79
2023/08/15 06:41:37;;;;;;;10.40;3.75;;;;;;;27.06;58.65;101425.31;4897574;29;20029;-78
2023/08/15 06:44:04;;;;;;;7.25;2.55;;;;;;;27.47;57.31;101410.53;4897082;29;20039;-81
2023/08/15 06:46:29;;;;;;;11.88;4.60;;;;;;;27.99;54.95;101455.19;4897209;29;20495;-80
2023/08/15 06:48:54;;;;;;;11.70;3.97;;;;;;;28.25;53.53;101467.78;4897464;29;20124;-79
2023/08/15 06:51:20;;;;;;;8.13;3.50;;;;;;;28.08;54.41;101447.88;4897560;29;20028;-79
2023/08/15 06:53:45;;;;;;;9.60;3.50;;;;;;;28.14;54.24;101463.03;4897324;29;20024;-79
2023/08/15 06:56:11;;;;;;;7.75;3.60;;;;;;;28.37;53.52;101463.56;4896930;29;20432;-78
2023/08/15 06:58:36;;;;;;;8.73;3.67;;;;;;;28.18;52.05;101461.63;4897248;29;20029;-79
2023/08/15 07:01:02;;;;;;;9.13;4.00;;;;;;;28.19;52.10;101426.06;4897101;29;20466;-79
2023/08/15 07:03:27;;;;;;;8.10;3.10;;;;;;;28.76;51.39;101462.88;4897379;29;20068;-79
2023/08/15 07:05:52;;;;;;;10.80;3.17;;;;;;;28.76;50.75;101431.00;4897361;29;20059;-78
2023/08/15 07:08:18;;;;;;;9.43;3.03;;;;;;;29.42;49.13;101438.22;4897322;29;20025;-80
2023/08/15 07:10:43;;;;;;;7.25;2.88;;;;;;;30.11;47.86;101443.06;4897416;29;20039;-79
2023/08/15 07:13:09;;;;;;;10.45;3.90;;;;;;;29.95;47.38;101465.59;4897313;29;20043;-80
2023/08/15 07:15:34;;;;;;;7.20;3.10;;;;;;;29.36;47.63;101462.97;4897065;29;20043;-79
2023/08/15 07:17:59;;;;;;;11.20;3.17;;;;;;;28.24;51.00;101444.91;4880343;29;20055;-80
2023/08/15 07:20:25;;;;;;;7.82;3.03;;;;;;;27.31;53.56;101452.22;4897355;29;20063;-78
2023/08/15 07:22:51;;;;;;;7.97;3.38;;;;;;;26.73;55.91;101474.47;4897090;29;20426;-80
2023/08/15 07:25:16;;;;;;;7.95;3.28;;;;;;;25.87;58.03;101457.47;4897380;29;20037;-81
2023/08/15 07:27:42;;;;;;;8.88;3.65;;;;;;;25.04;62.53;101477.63;4897260;29;20505;-79
2023/08/15 07:30:08;;;;;;;11.25;4.18;;;;;;;24.27;65.40;101476.63;4897005;29;20147;-80
2023/08/15 07:32:39;;;;;;;9.07;3.55;;;;;;;23.79;68.77;101478.41;4897038;29;20037;-79
2023/08/15 07:35:04;;;;;;;;;;;;;;;23.78;67.97;101486.47;4897533;29;20033;-80
2023/08/15 07:37:30;;;;;;;9.27;3.63;;;;;;;23.14;71.72;101481.84;4897324;29;19919;-80
2023/08/15 07:39:58;;;;;;;11.73;3.65;;;;;;;22.93;73.71;101486.75;4897114;29;20382;-80
2023/08/15 07:42:26;;;;;;;13.65;4.32;;;;;;;22.71;75.53;101488.13;4897175;29;20048;-80
2023/08/15 07:44:51;;;;;;;8.40;3.70;;;;;;;22.65;76.28;101485.31;4896981;29;20028;-79
2023/08/15 07:47:17;;;;;;;11.63;3.92;;;;;;;22.63;77.71;101484.66;4896942;29;20021;-79
2023/08/15 07:49:42;;;;;;;10.05;4.30;;;;;;;22.54;76.80;101491.69;4896887;29;20474;-78
2023/08/15 07:52:07;;;;;;;12.80;4.07;;;;;;;22.22;78.19;101476.56;4897119;29;20047;-78
2023/08/15 07:54:32;;;;;;;7.60;3.00;;;;;;;22.11;78.96;101496.06;4896964;29;20518;-78
2023/08/15 07:56:58;;;;;;;10.05;3.60;;;;;;;21.93;80.37;101488.22;4897056;29;20147;-79
2023/08/15 07:59:24;;;;;;;10.95;3.85;;;;;;;21.95;82.17;101495.97;4896938;29;20025;-77
2023/08/15 08:01:49;;;;;;;9.75;3.22;;;;;;;22.10;81.13;101498.88;4896663;29;20037;-76
2023/08/15 08:04:14;;;;;;;8.02;3.72;;;;;;;22.13;81.81;101507.28;4896998;29;20052;-79
2023/08/15 08:06:40;;;;;;;10.63;3.95;;;;;;;22.15;81.38;101486.91;4897584;29;20032;-78
2023/08/15 08:09:05;;;;;;;10.95;3.88;;;;;;;22.32;79.96;101498.34;4900239;29;20028;-78
2023/08/15 08:11:31;;;;;;;9.50;3.58;;;;;;;22.42;80.51;101501.69;4900336;29;20032;-77
2023/08/15 08:13:56;;;;;;;8.48;3.67;;;;;;;22.46;79.33;101494.28;4900123;29;20025;-77
2023/08/15 08:16:22;;;;;;;10.90;3.60;;;;;;;22.49;79.50;101502.69;4899959;29;20028;-74
2023/08/15 08:18:47;;;;;;;8.73;3.75;;;;;;;22.49;81.22;101499.22;4899964;29;20081;-78
2023/08/15 08:21:13;;;;;;;10.63;3.17;;;;;;;22.41;79.57;101500.00;4900024;29;20024;-77
2023/08/15 08:23:38;;;;;;;10.77;3.28;;;;;;;22.47;80.51;101507.28;4899972;29;20044;-77
2023/08/15 08:26:04;;;;;;;10.27;3.40;;;;;;;22.61;81.75;101498.81;4899901;29;20052;-80
2023/08/15 08:28:30;;;;;;;8.00;2.80;;;;;;;22.59;80.71;101486.75;4900034;29;20029;-78
2023/08/15 08:30:56;;;;;;;9.43;3.35;;;;;;;22.45;79.78;101474.22;4899660;29;20024;-78
2023/08/15 08:33:21;;;;;;;10.50;3.45;;;;;;;22.64;80.87;101513.47;4899689;29;20032;-78
2023/08/15 08:35:46;;;;;;;9.63;3.00;;;;;;;22.35;79.69;101470.88;4899709;29;20035;-78
2023/08/15 08:38:12;;;;;;;10.70;3.20;;;;;;;22.50;81.14;101509.59;4899741;29;20189;-76
2023/08/15 08:40:39;;;;;;;9.85;3.25;;;;;;;22.31;81.55;101510.66;4899976;29;20479;-79
2023/08/15 08:43:04;;;;;;;10.85;3.67;;;;;;;22.20;82.80;101520.63;4899838;29;20032;-78
2023/08/15 08:45:31;;;;;;;8.40;2.85;;;;;;;21.83;81.86;101474.34;4899576;29;20029;-78
2023/08/15 08:47:58;;;;;;;7.55;3.33;;;;;;;22.08;84.01;101506.91;4899461;29;20028;-77
2023/08/15 08:50:24;;;;;;;11.57;3.50;;;;;;;22.16;82.45;101499.06;4897519;29;20060;-78
2023/08/15 08:52:50;;;;;;;10.75;3.85;;;;;;;22.33;82.44;101515.78;4900363;29;20037;-78
2023/08/15 08:55:17;;;;;;;9.68;3.08;;;;;;;22.39;82.07;101512.50;4914350;29;20106;-79
2023/08/15 08:57:46;;;;;;;7.75;3.45;;;;;;;22.41;83.42;101486.03;4918507;29;20030;-78
2023/08/15 09:00:14;;;;;;;9.18;3.78;;;;;;;22.67;82.70;101512.31;4918545;29;20032;-78
2023/08/15 09:02:40;;;;;;;10.90;3.92;;;;;;;22.66;80.74;101524.66;4918058;29;20038;-78
2023/08/15 09:05:07;;;;;;;8.27;3.08;;;;;;;22.74;80.33;101523.84;4918052;29;20470;-79
2023/08/15 09:07:34;;;;;;;8.73;2.92;;;;;;;22.79;79.50;101517.13;4917823;29;20043;-78
2023/08/15 09:09:59;;;;;;;10.05;3.20;;;;;;;22.80;78.03;101505.59;4917891;29;20036;-78
2023/08/15 09:12:35;;;;;;;7.13;3.17;;;;;;;23.00;77.72;101523.78;4918081;29;20028;-78
2023/08/15 09:15:04;;;;;;;9.18;3.33;;;;;;;22.86;77.29;101510.25;4917918;29;20027;-78
2023/08/15 09:17:30;;;;;;;10.20;3.22;;;;;;;22.96;79.67;101533.00;4917669;29;20038;-78
2023/08/15 09:19:55;;;;;;;12.95;3.78;;;;;;;22.85;78.06;101513.06;4917286;29;20035;-78
2023/08/15 09:22:24;;;;;;;9.07;3.47;;;;;;;23.08;78.71;101527.28;4917566;29;20032;-78
2023/08/15 09:24:51;;;;;;;8.85;2.58;;;;;;;23.18;79.88;101535.84;4918048;29;20064;-78
2023/08/15 09:27:19;;;;;;;9.15;3.10;;;;;;;23.33;78.64;101537.88;4917832;29;20067;-78
2023/08/15 09:29:44;;;;;;;10.77;3.40;;;;;;;23.44;76.66;101542.81;4917689;29;20036;-78
2023/08/15 09:32:11;;;;;;;10.90;3.58;;;;;;;23.31;78.07;101516.13;4917667;29;20028;-78
2023/08/15 09:34:37;;;;;;;10.93;3.45;;;;;;;23.67;75.21;101533.31;4917325;29;20059;-79
2023/08/15 09:37:02;;;;;;;10.40;3.22;;;;;;;23.75;76.28;101529.84;4917638;29;20056;-79
2023/08/15 09:39:28;;;;;;;8.27;3.30;;;;;;;24.12;75.90;101545.16;4917515;29;20056;-79
2023/08/15 09:41:54;;;;;;;9.32;3.38;;;;;;;24.29;72.85;101536.22;4906811;29;20036;-78
2023/08/15 09:44:38;;;;;;;11.13;4.20;;;;;;;24.40;73.08;101544.78;4899182;29;20103;-79
2023/08/15 09:47:06;;;;;;;12.45;3.30;;;;;;;24.08;73.06;101527.97;4898128;29;20127;-77
2023/08/15 09:49:32;;;;;;;9.90;2.78;;;;;;;24.16;71.78;101545.63;4898308;29;20036;-77
2023/08/15 09:51:59;;;;;;;9.40;3.03;;;;;;;24.11;69.91;101543.50;4898436;29;20111;-78
2023/08/15 09:54:25;;;;;;;8.43;2.90;;;;;;;24.02;70.25;101533.94;4898187;29;20064;-79
2023/08/15 09:56:51;;;;;;;9.07;2.90;;;;;;;23.89;70.60;101530.97;4898243;29;20056;-77
2023/08/15 09:59:17;;;;;;;6.90;3.00;;;;;;;23.89;70.44;101557.34;4898188;29;20059;-79
2023/08/15 10:01:45;;;;;;;10.00;3.10;;;;;;;23.66;70.30;101542.19;4881130;29;20041;-79
2023/08/15 10:04:12;;;;;;;9.20;2.88;;;;;;;23.75;69.72;101562.31;4897980;29;20435;-78
2023/08/15 10:06:38;;;;;;;10.43;3.22;;;;;;;23.90;70.54;101569.59;4898191;29;20052;-79
2023/08/15 10:09:05;;;;;;;11.40;2.92;;;;;;;24.05;69.78;101567.91;4898201;29;20150;-79
2023/08/15 10:11:39;;;;;;;10.18;3.58;;;;;;;24.16;69.89;101570.19;4898072;29;20033;-77
2023/08/15 10:14:08;;;;;;;8.68;3.30;;;;;;;24.24;69.90;101578.09;4898036;29;20047;-79
2023/08/15 10:16:34;;;;;;;7.60;2.90;;;;;;;24.25;68.32;101560.44;4897879;29;20248;-79
2023/08/15 10:19:01;;;;;;;8.88;2.72;;;;;;;24.62;68.28;101586.31;4897636;29;20493;-79
2023/08/15 10:21:46;;;;;;;6.72;2.58;;;;;;;24.65;67.06;101561.34;4897877;29;20052;-79
2023/08/15 10:24:12;;;;;;;8.52;2.92;;;;;;;24.63;66.82;101560.72;4880972;29;20044;-79
2023/08/15 10:26:38;;;;;;;8.65;2.60;;;;;;;24.76;69.63;101582.94;4897940;29;20036;-79
2023/08/15 10:29:03;;;;;;;9.60;3.30;;;;;;;24.81;66.43;101580.63;4897398;29;20559;-79
2023/08/15 10:31:40;;;;;;;10.90;2.85;;;;;;;24.97;68.97;101579.69;4897113;29;20115;-78
2023/08/15 10:34:09;;;;;;;10.02;3.10;;;;;;;25.16;67.76;101578.47;4897620;29;20029;-79
2023/08/15 10:36:35;;;;;;;8.48;2.90;;;;;;;25.35;65.56;101588.63;4897876;29;20108;-78
2023/08/15 10:39:07;;;;;;;7.82;2.78;;;;;;;25.57;66.40;101583.53;4898002;29;20103;-78
2023/08/15 10:41:35;;;;;;;10.98;2.72;;;;;;;25.68;62.94;101572.53;4897607;29;20368;-79
2023/08/15 10:44:04;;;;;;;12.20;2.70;;;;;;;25.94;63.41;101588.88;4897689;29;20032;-79
2023/08/15 10:46:30;;;;;;;6.53;2.45;;;;;;;26.01;62.83;101587.16;4897726;29;20021;-80
2023/08/15 10:49:01;;;;;;;9.57;2.88;;;;;;;25.96;64.50;101571.00;4895692;29;20044;-79
2023/08/15 10:51:32;;;;;;;7.47;2.58;;;;;;;25.93;63.36;101594.34;4897596;29;20090;-78
2023/08/15 10:54:03;;;;;;;7.93;2.45;;;;;;;25.64;62.12;101585.28;4897455;29;20119;-79
2023/08/15 10:56:31;;;;;;;7.97;2.53;;;;;;;25.57;62.81;101572.97;4897405;29;20431;-79
2023/08/15 10:58:58;;;;;;;11.73;3.00;;;;;;;25.66;64.03;101579.81;4897458;29;20108;-78
2023/08/15 11:01:28;;;;;;;7.30;2.72;;;;;;;25.68;63.75;101580.47;4897506;29;20032;-78
2023/08/15 11:03:55;;;;;;;6.70;2.60;;;;;;;25.52;64.16;101584.03;4897352;29;20036;-77
2023/08/15 11:06:21;;;;;;;7.88;2.60;;;;;;;25.46;64.04;101584.75;4897414;29;20036;-79
2023/08/15 11:08:49;;;;;;;7.35;2.17;;;;;;;25.25;63.29;101568.69;4897301;29;20048;-79
2023/08/15 11:11:16;;;;;;;8.23;3.00;;;;;;;25.26;63.74;101591.47;4897359;29;20060;-77
2023/08/15 11:13:43;;;;;;;8.80;2.85;;;;;;;25.33;62.91;101580.03;4897675;29;20386;-78
2023/08/15 11:16:09;;;;;;;6.95;2.50;;;;;;;25.50;62.61;101545.56;4897374;29;20107;-78
2023/08/15 11:18:37;;;;;;;9.27;2.70;;;;;;;26.11;62.58;101583.44;4897268;29;20539;-77